createdAt,value
2023-05-14T09:46:10.627Z,18.67
2023-05-14T09:56:13.651Z,18.79
2023-05-14T10:06:23.254Z,18.59
2023-05-14T10:16:30.221Z,18.89
2023-05-14T10:26:37.695Z,19.37
2023-05-14T10:36:40.719Z,19.59
2023-05-14T10:46:45.445Z,20.16
2023-05-14T10:56:48.976Z,19.72
2023-05-14T11:06:54.636Z,20.16
2023-05-14T11:16:58.808Z,20.13
2023-05-14T11:27:03.169Z,19.46
2023-05-14T11:42:28.434Z,19.05
2023-05-14T13:52:11.515Z,22.19
2023-05-14T14:02:14.506Z,21.67
2023-05-14T14:12:18.849Z,21.72
2023-05-14T14:22:23.174Z,21.98
2023-05-14T14:32:30.323Z,21.74
2023-05-14T14:42:33.278Z,21.55
2023-05-14T14:52:37.746Z,21.68
2023-05-14T15:02:43.140Z,21.65
2023-05-14T15:12:47.698Z,21.51
2023-05-14T15:32:56.876Z,21.28
2023-05-14T15:43:00.029Z,21.33
2023-05-14T15:53:04.609Z,21.27
2023-05-14T16:03:07.665Z,21.27
2023-05-14T16:13:11.969Z,20.83
2023-05-14T16:23:15.002Z,20.56
2023-05-14T16:33:19.398Z,20.50
2023-05-14T16:43:22.402Z,20.45
2023-05-14T16:53:26.969Z,20.39
2023-05-14T17:03:30.734Z,20.31
2023-05-14T17:13:35.753Z,20.30
2023-05-14T17:23:38.788Z,20.13
2023-05-14T17:33:43.561Z,19.99
2023-05-14T17:43:46.533Z,19.83
2023-05-14T17:53:50.968Z,19.65
2023-05-14T18:03:54.424Z,19.51
2023-05-14T18:13:58.605Z,19.48
2023-05-14T18:24:01.597Z,19.37
2023-05-14T18:34:06.063Z,19.27
2023-05-14T18:44:09.775Z,19.05
2023-05-14T18:54:14.560Z,18.95
2023-05-14T19:04:17.849Z,18.83
2023-05-14T19:14:22.995Z,18.65
2023-05-14T19:24:26.237Z,18.40
2023-05-14T19:34:30.464Z,18.36
2023-05-14T19:44:33.729Z,18.28
2023-05-14T19:54:38.331Z,17.83
2023-05-14T20:04:42.960Z,17.44
2023-05-14T20:14:47.546Z,17.38
2023-05-14T20:24:52.696Z,17.14
2023-05-14T20:35:02.176Z,17.17
2023-05-14T20:45:06.963Z,17.31
2023-05-14T20:55:11.839Z,17.27
2023-05-14T21:05:15.462Z,17.13
2023-05-14T21:15:20.914Z,17.16
2023-05-14T21:25:24.014Z,16.86
2023-05-14T21:35:28.242Z,16.60
2023-05-14T21:45:31.145Z,16.72
2023-05-14T21:55:36.439Z,16.54
2023-05-14T22:05:40.215Z,16.57
2023-05-14T22:15:44.482Z,16.58
2023-05-14T22:25:47.953Z,16.52
2023-05-14T22:35:52.490Z,16.27
2023-05-14T22:45:56.148Z,15.90
2023-05-14T22:56:00.600Z,15.97
2023-05-14T23:06:04.107Z,15.87
2023-05-14T23:16:08.609Z,15.95
2023-05-14T23:26:12.000Z,15.83
2023-05-14T23:36:16.930Z,15.69
2023-05-14T23:46:19.990Z,15.55
2023-05-14T23:56:24.533Z,15.40
